<?xml version="1.0" encoding="UTF-8" standalone="no" ?>
<gpx xmlns="http://www.topografix.com/GPX/1/1" xmlns:xsi="http://www.w3.org/2001/XMLSchema-instance" xsi:schemaLocation="http://www.topografix.com/GPX/1/1 http://www.topografix.com/GPX/1/1/gpx.xsd" version="1.1" creator="VisuGPX - https://www.visugpx.com">
  <metadata>
    <name>RANDO PAULHAC VILLARD GRAND 22 KM</name>
    <desc><![CDATA[RANDO PAULHAC VILLARD GRAND 22 KM.DEPART ARRIVEE PAULHAC EN MARGERIDES.AMOURETTES.LA VACHERESSE.LE VILLARD GRAND.ST PRIVAT DU FAU.LA CROIX DU FAU.RAPANEDE]]></desc>
  </metadata>
  <trk>
    <name><![CDATA[paulhac en margeride-13646053]]></name>
    <desc><![CDATA[]]></desc>
    <extensions>
      <line xmlns="http://www.topografix.com/GPX/gpx_style/0/2">
        <color>0000FF</color>
        <width>4</width>
      </line>
    </extensions>
    <trkseg>
      <trkpt lat="44.94715" lon="3.38066">
        <ele>1172</ele>
        <time>2025-07-25T17:13:20Z</time>
      </trkpt>
      <trkpt lat="44.94803" lon="3.37864">
        <ele>1181</ele>
        <time>2025-07-25T17:17:04Z</time>
      </trkpt>
      <trkpt lat="44.94794" lon="3.37782">
        <ele>1184</ele>
        <time>2025-07-25T17:18:22Z</time>
      </trkpt>
      <trkpt lat="44.94803" lon="3.37512">
        <ele>1186</ele>
        <time>2025-07-25T17:22:38Z</time>
      </trkpt>
      <trkpt lat="44.94876" lon="3.37456">
        <ele>1188</ele>
        <time>2025-07-25T17:24:29Z</time>
      </trkpt>
      <trkpt lat="44.94898" lon="3.37405">
        <ele>1188</ele>
        <time>2025-07-25T17:25:25Z</time>
      </trkpt>
      <trkpt lat="44.9497" lon="3.37362">
        <ele>1195</ele>
        <time>2025-07-25T17:27:09Z</time>
      </trkpt>
      <trkpt lat="44.95068" lon="3.37182">
        <ele>1196</ele>
        <time>2025-07-25T17:30:44Z</time>
      </trkpt>
      <trkpt lat="44.95144" lon="3.37109">
        <ele>1205</ele>
        <time>2025-07-25T17:32:46Z</time>
      </trkpt>
      <trkpt lat="44.95226" lon="3.36868">
        <ele>1201</ele>
        <time>2025-07-25T17:36:59Z</time>
      </trkpt>
      <trkpt lat="44.95305" lon="3.3683">
        <ele>1207</ele>
        <time>2025-07-25T17:38:50Z</time>
      </trkpt>
      <trkpt lat="44.95387" lon="3.3695">
        <ele>1223</ele>
        <time>2025-07-25T17:41:28Z</time>
      </trkpt>
      <trkpt lat="44.95487" lon="3.3704">
        <ele>1238</ele>
        <time>2025-07-25T17:44:06Z</time>
      </trkpt>
      <trkpt lat="44.95611" lon="3.37036">
        <ele>1238</ele>
        <time>2025-07-25T17:46:52Z</time>
      </trkpt>
      <trkpt lat="44.95736" lon="3.37023">
        <ele>1236</ele>
        <time>2025-07-25T17:49:39Z</time>
      </trkpt>
      <trkpt lat="44.95839" lon="3.36976">
        <ele>1239</ele>
        <time>2025-07-25T17:52:03Z</time>
      </trkpt>
      <trkpt lat="44.96027" lon="3.36937">
        <ele>1264</ele>
        <time>2025-07-25T17:56:17Z</time>
      </trkpt>
      <trkpt lat="44.96164" lon="3.36735">
        <ele>1290</ele>
        <time>2025-07-25T18:00:41Z</time>
      </trkpt>
      <trkpt lat="44.96079" lon="3.36619">
        <ele>1269</ele>
        <time>2025-07-25T18:03:19Z</time>
      </trkpt>
      <trkpt lat="44.96006" lon="3.36568">
        <ele>1256</ele>
        <time>2025-07-25T18:05:07Z</time>
      </trkpt>
      <trkpt lat="44.95915" lon="3.36379">
        <ele>1262</ele>
        <time>2025-07-25T18:08:43Z</time>
      </trkpt>
      <trkpt lat="44.95869" lon="3.36152">
        <ele>1264</ele>
        <time>2025-07-25T18:12:26Z</time>
      </trkpt>
      <trkpt lat="44.95781" lon="3.35997">
        <ele>1265</ele>
        <time>2025-07-25T18:15:34Z</time>
      </trkpt>
      <trkpt lat="44.95727" lon="3.35898">
        <ele>1280</ele>
        <time>2025-07-25T18:17:32Z</time>
      </trkpt>
      <trkpt lat="44.95569" lon="3.35813">
        <ele>1283</ele>
        <time>2025-07-25T18:21:17Z</time>
      </trkpt>
      <trkpt lat="44.95454" lon="3.35756">
        <ele>1290</ele>
        <time>2025-07-25T18:24:00Z</time>
      </trkpt>
      <trkpt lat="44.95339" lon="3.35763">
        <ele>1285</ele>
        <time>2025-07-25T18:26:34Z</time>
      </trkpt>
      <trkpt lat="44.95291" lon="3.35753">
        <ele>1288</ele>
        <time>2025-07-25T18:27:38Z</time>
      </trkpt>
      <trkpt lat="44.95219" lon="3.35615">
        <ele>1297</ele>
        <time>2025-07-25T18:30:20Z</time>
      </trkpt>
      <trkpt lat="44.95181" lon="3.3554">
        <ele>1296</ele>
        <time>2025-07-25T18:31:47Z</time>
      </trkpt>
      <trkpt lat="44.95112" lon="3.35464">
        <ele>1294</ele>
        <time>2025-07-25T18:33:44Z</time>
      </trkpt>
      <trkpt lat="44.95043" lon="3.35338">
        <ele>1290</ele>
        <time>2025-07-25T18:36:15Z</time>
      </trkpt>
      <trkpt lat="44.94987" lon="3.35233">
        <ele>1284</ele>
        <time>2025-07-25T18:38:19Z</time>
      </trkpt>
      <trkpt lat="44.94938" lon="3.35182">
        <ele>1278</ele>
        <time>2025-07-25T18:39:40Z</time>
      </trkpt>
      <trkpt lat="44.94946" lon="3.35121">
        <ele>1274</ele>
        <time>2025-07-25T18:40:39Z</time>
      </trkpt>
      <trkpt lat="44.9492" lon="3.3511">
        <ele>1272</ele>
        <time>2025-07-25T18:41:15Z</time>
      </trkpt>
      <trkpt lat="44.94841" lon="3.35154">
        <ele>1265</ele>
        <time>2025-07-25T18:43:08Z</time>
      </trkpt>
      <trkpt lat="44.94747" lon="3.35168">
        <ele>1254</ele>
        <time>2025-07-25T18:45:14Z</time>
      </trkpt>
      <trkpt lat="44.94701" lon="3.35168">
        <ele>1252</ele>
        <time>2025-07-25T18:46:16Z</time>
      </trkpt>
      <trkpt lat="44.94634" lon="3.35164">
        <ele>1252</ele>
        <time>2025-07-25T18:47:45Z</time>
      </trkpt>
      <trkpt lat="44.94573" lon="3.35074">
        <ele>1240</ele>
        <time>2025-07-25T18:49:43Z</time>
      </trkpt>
      <trkpt lat="44.94453" lon="3.34995">
        <ele>1236</ele>
        <time>2025-07-25T18:52:40Z</time>
      </trkpt>
      <trkpt lat="44.94346" lon="3.34807">
        <ele>1228</ele>
        <time>2025-07-25T18:56:27Z</time>
      </trkpt>
      <trkpt lat="44.94272" lon="3.34598">
        <ele>1223</ele>
        <time>2025-07-25T19:00:08Z</time>
      </trkpt>
      <trkpt lat="44.94256" lon="3.34472">
        <ele>1218</ele>
        <time>2025-07-25T19:02:09Z</time>
      </trkpt>
      <trkpt lat="44.9419" lon="3.34396">
        <ele>1216</ele>
        <time>2025-07-25T19:04:03Z</time>
      </trkpt>
      <trkpt lat="44.94085" lon="3.34266">
        <ele>1205</ele>
        <time>2025-07-25T19:07:09Z</time>
      </trkpt>
      <trkpt lat="44.94014" lon="3.3414">
        <ele>1186</ele>
        <time>2025-07-25T19:09:41Z</time>
      </trkpt>
      <trkpt lat="44.9396" lon="3.34075">
        <ele>1173</ele>
        <time>2025-07-25T19:11:16Z</time>
      </trkpt>
      <trkpt lat="44.93922" lon="3.34082">
        <ele>1167</ele>
        <time>2025-07-25T19:12:07Z</time>
      </trkpt>
      <trkpt lat="44.93886" lon="3.34158">
        <ele>1158</ele>
        <time>2025-07-25T19:13:33Z</time>
      </trkpt>
      <trkpt lat="44.93822" lon="3.34035">
        <ele>1141</ele>
        <time>2025-07-25T19:15:58Z</time>
      </trkpt>
      <trkpt lat="44.93791" lon="3.33955">
        <ele>1134</ele>
        <time>2025-07-25T19:17:24Z</time>
      </trkpt>
      <trkpt lat="44.9372" lon="3.33912">
        <ele>1132</ele>
        <time>2025-07-25T19:19:07Z</time>
      </trkpt>
      <trkpt lat="44.93669" lon="3.33952">
        <ele>1132</ele>
        <time>2025-07-25T19:20:25Z</time>
      </trkpt>
      <trkpt lat="44.93602" lon="3.33999">
        <ele>1134</ele>
        <time>2025-07-25T19:22:04Z</time>
      </trkpt>
      <trkpt lat="44.93505" lon="3.33984">
        <ele>1129</ele>
        <time>2025-07-25T19:24:15Z</time>
      </trkpt>
      <trkpt lat="44.93587" lon="3.33876">
        <ele>1133</ele>
        <time>2025-07-25T19:26:44Z</time>
      </trkpt>
      <trkpt lat="44.9362" lon="3.33833">
        <ele>1131</ele>
        <time>2025-07-25T19:27:44Z</time>
      </trkpt>
      <trkpt lat="44.936" lon="3.33739">
        <ele>1123</ele>
        <time>2025-07-25T19:29:17Z</time>
      </trkpt>
      <trkpt lat="44.93735" lon="3.33649">
        <ele>1125</ele>
        <time>2025-07-25T19:32:36Z</time>
      </trkpt>
      <trkpt lat="44.93766" lon="3.33544">
        <ele>1123</ele>
        <time>2025-07-25T19:34:24Z</time>
      </trkpt>
      <trkpt lat="44.93814" lon="3.33447">
        <ele>1122</ele>
        <time>2025-07-25T19:36:15Z</time>
      </trkpt>
      <trkpt lat="44.93878" lon="3.33313">
        <ele>1121</ele>
        <time>2025-07-25T19:38:48Z</time>
      </trkpt>
      <trkpt lat="44.93873" lon="3.3323">
        <ele>1119</ele>
        <time>2025-07-25T19:40:07Z</time>
      </trkpt>
      <trkpt lat="44.93756" lon="3.33172">
        <ele>1114</ele>
        <time>2025-07-25T19:42:52Z</time>
      </trkpt>
      <trkpt lat="44.93607" lon="3.33169">
        <ele>1106</ele>
        <time>2025-07-25T19:46:11Z</time>
      </trkpt>
      <trkpt lat="44.93472" lon="3.33176">
        <ele>1101</ele>
        <time>2025-07-25T19:49:11Z</time>
      </trkpt>
      <trkpt lat="44.93337" lon="3.33042">
        <ele>1091</ele>
        <time>2025-07-25T19:52:52Z</time>
      </trkpt>
      <trkpt lat="44.93298" lon="3.32902">
        <ele>1082</ele>
        <time>2025-07-25T19:55:14Z</time>
      </trkpt>
      <trkpt lat="44.93247" lon="3.32801">
        <ele>1076</ele>
        <time>2025-07-25T19:57:11Z</time>
      </trkpt>
      <trkpt lat="44.93268" lon="3.32692">
        <ele>1072</ele>
        <time>2025-07-25T19:58:58Z</time>
      </trkpt>
      <trkpt lat="44.93183" lon="3.32498">
        <ele>1049</ele>
        <time>2025-07-25T20:02:33Z</time>
      </trkpt>
      <trkpt lat="44.93125" lon="3.32386">
        <ele>1034</ele>
        <time>2025-07-25T20:04:44Z</time>
      </trkpt>
      <trkpt lat="44.93079" lon="3.32332">
        <ele>1026</ele>
        <time>2025-07-25T20:06:04Z</time>
      </trkpt>
      <trkpt lat="44.93076" lon="3.32377">
        <ele>1026</ele>
        <time>2025-07-25T20:06:47Z</time>
      </trkpt>
      <trkpt lat="44.93073" lon="3.32407">
        <ele>1026</ele>
        <time>2025-07-25T20:07:15Z</time>
      </trkpt>
      <trkpt lat="44.93" lon="3.32432">
        <ele>1015</ele>
        <time>2025-07-25T20:08:56Z</time>
      </trkpt>
      <trkpt lat="44.92979" lon="3.32466">
        <ele>1014</ele>
        <time>2025-07-25T20:09:38Z</time>
      </trkpt>
      <trkpt lat="44.92947" lon="3.3254">
        <ele>1013</ele>
        <time>2025-07-25T20:11:00Z</time>
      </trkpt>
      <trkpt lat="44.92931" lon="3.32559">
        <ele>1010</ele>
        <time>2025-07-25T20:11:28Z</time>
      </trkpt>
      <trkpt lat="44.92909" lon="3.32575">
        <ele>1007</ele>
        <time>2025-07-25T20:12:01Z</time>
      </trkpt>
      <trkpt lat="44.92895" lon="3.3262">
        <ele>1013</ele>
        <time>2025-07-25T20:12:48Z</time>
      </trkpt>
      <trkpt lat="44.92851" lon="3.32586">
        <ele>1009</ele>
        <time>2025-07-25T20:13:54Z</time>
      </trkpt>
      <trkpt lat="44.92781" lon="3.32512">
        <ele>1005</ele>
        <time>2025-07-25T20:15:51Z</time>
      </trkpt>
      <trkpt lat="44.92662" lon="3.32562">
        <ele>1008</ele>
        <time>2025-07-25T20:18:37Z</time>
      </trkpt>
      <trkpt lat="44.92624" lon="3.32658">
        <ele>1008</ele>
        <time>2025-07-25T20:20:21Z</time>
      </trkpt>
      <trkpt lat="44.92611" lon="3.327">
        <ele>1008</ele>
        <time>2025-07-25T20:21:04Z</time>
      </trkpt>
      <trkpt lat="44.92592" lon="3.32754">
        <ele>1008</ele>
        <time>2025-07-25T20:22:01Z</time>
      </trkpt>
      <trkpt lat="44.92563" lon="3.32817">
        <ele>1007</ele>
        <time>2025-07-25T20:23:12Z</time>
      </trkpt>
      <trkpt lat="44.92551" lon="3.32902">
        <ele>1010</ele>
        <time>2025-07-25T20:24:34Z</time>
      </trkpt>
      <trkpt lat="44.92543" lon="3.32936">
        <ele>1011</ele>
        <time>2025-07-25T20:25:08Z</time>
      </trkpt>
      <trkpt lat="44.92486" lon="3.32961">
        <ele>1007</ele>
        <time>2025-07-25T20:26:27Z</time>
      </trkpt>
      <trkpt lat="44.9244" lon="3.32987">
        <ele>1007</ele>
        <time>2025-07-25T20:27:34Z</time>
      </trkpt>
      <trkpt lat="44.92389" lon="3.32983">
        <ele>1003</ele>
        <time>2025-07-25T20:28:42Z</time>
      </trkpt>
      <trkpt lat="44.92339" lon="3.32909">
        <ele>1001</ele>
        <time>2025-07-25T20:30:18Z</time>
      </trkpt>
      <trkpt lat="44.92245" lon="3.32779">
        <ele>994</ele>
        <time>2025-07-25T20:33:14Z</time>
      </trkpt>
      <trkpt lat="44.9216" lon="3.32708">
        <ele>990</ele>
        <time>2025-07-25T20:35:26Z</time>
      </trkpt>
      <trkpt lat="44.92115" lon="3.32667">
        <ele>991</ele>
        <time>2025-07-25T20:36:37Z</time>
      </trkpt>
      <trkpt lat="44.92021" lon="3.32629">
        <ele>988</ele>
        <time>2025-07-25T20:38:48Z</time>
      </trkpt>
      <trkpt lat="44.91942" lon="3.32603">
        <ele>981</ele>
        <time>2025-07-25T20:40:36Z</time>
      </trkpt>
      <trkpt lat="44.91866" lon="3.32524">
        <ele>965</ele>
        <time>2025-07-25T20:42:42Z</time>
      </trkpt>
      <trkpt lat="44.91842" lon="3.32437">
        <ele>957</ele>
        <time>2025-07-25T20:44:10Z</time>
      </trkpt>
      <trkpt lat="44.91759" lon="3.32381">
        <ele>937</ele>
        <time>2025-07-25T20:46:13Z</time>
      </trkpt>
      <trkpt lat="44.91716" lon="3.3231">
        <ele>930</ele>
        <time>2025-07-25T20:47:41Z</time>
      </trkpt>
      <trkpt lat="44.91734" lon="3.32435">
        <ele>931</ele>
        <time>2025-07-25T20:49:42Z</time>
      </trkpt>
      <trkpt lat="44.91763" lon="3.32511">
        <ele>933</ele>
        <time>2025-07-25T20:51:03Z</time>
      </trkpt>
      <trkpt lat="44.91747" lon="3.32565">
        <ele>929</ele>
        <time>2025-07-25T20:51:58Z</time>
      </trkpt>
      <trkpt lat="44.91705" lon="3.32578">
        <ele>925</ele>
        <time>2025-07-25T20:52:56Z</time>
      </trkpt>
      <trkpt lat="44.91678" lon="3.32555">
        <ele>921</ele>
        <time>2025-07-25T20:53:38Z</time>
      </trkpt>
      <trkpt lat="44.91566" lon="3.32552">
        <ele>918</ele>
        <time>2025-07-25T20:56:07Z</time>
      </trkpt>
      <trkpt lat="44.91506" lon="3.32575">
        <ele>919</ele>
        <time>2025-07-25T20:57:30Z</time>
      </trkpt>
      <trkpt lat="44.91456" lon="3.32575">
        <ele>923</ele>
        <time>2025-07-25T20:58:37Z</time>
      </trkpt>
      <trkpt lat="44.91387" lon="3.32557">
        <ele>928</ele>
        <time>2025-07-25T21:00:11Z</time>
      </trkpt>
      <trkpt lat="44.91273" lon="3.3259">
        <ele>945</ele>
        <time>2025-07-25T21:02:46Z</time>
      </trkpt>
      <trkpt lat="44.91116" lon="3.32527">
        <ele>951</ele>
        <time>2025-07-25T21:06:24Z</time>
      </trkpt>
      <trkpt lat="44.91063" lon="3.32566">
        <ele>955</ele>
        <time>2025-07-25T21:07:44Z</time>
      </trkpt>
      <trkpt lat="44.91098" lon="3.32628">
        <ele>957</ele>
        <time>2025-07-25T21:08:59Z</time>
      </trkpt>
      <trkpt lat="44.91188" lon="3.3274">
        <ele>969</ele>
        <time>2025-07-25T21:11:39Z</time>
      </trkpt>
      <trkpt lat="44.91265" lon="3.32849">
        <ele>983</ele>
        <time>2025-07-25T21:14:04Z</time>
      </trkpt>
      <trkpt lat="44.91344" lon="3.32942">
        <ele>995</ele>
        <time>2025-07-25T21:16:21Z</time>
      </trkpt>
      <trkpt lat="44.91446" lon="3.32989">
        <ele>1000</ele>
        <time>2025-07-25T21:18:45Z</time>
      </trkpt>
      <trkpt lat="44.91521" lon="3.33036">
        <ele>1005</ele>
        <time>2025-07-25T21:20:34Z</time>
      </trkpt>
      <trkpt lat="44.91583" lon="3.33145">
        <ele>1009</ele>
        <time>2025-07-25T21:22:46Z</time>
      </trkpt>
      <trkpt lat="44.91591" lon="3.33315">
        <ele>1013</ele>
        <time>2025-07-25T21:25:27Z</time>
      </trkpt>
      <trkpt lat="44.91562" lon="3.33403">
        <ele>1019</ele>
        <time>2025-07-25T21:26:59Z</time>
      </trkpt>
      <trkpt lat="44.91542" lon="3.33499">
        <ele>1029</ele>
        <time>2025-07-25T21:28:33Z</time>
      </trkpt>
      <trkpt lat="44.91571" lon="3.336">
        <ele>1041</ele>
        <time>2025-07-25T21:30:16Z</time>
      </trkpt>
      <trkpt lat="44.916" lon="3.33693">
        <ele>1054</ele>
        <time>2025-07-25T21:31:52Z</time>
      </trkpt>
      <trkpt lat="44.91612" lon="3.3374">
        <ele>1059</ele>
        <time>2025-07-25T21:32:40Z</time>
      </trkpt>
      <trkpt lat="44.91621" lon="3.33798">
        <ele>1063</ele>
        <time>2025-07-25T21:33:36Z</time>
      </trkpt>
      <trkpt lat="44.91653" lon="3.33828">
        <ele>1071</ele>
        <time>2025-07-25T21:34:27Z</time>
      </trkpt>
      <trkpt lat="44.91697" lon="3.33911">
        <ele>1079</ele>
        <time>2025-07-25T21:36:05Z</time>
      </trkpt>
      <trkpt lat="44.91718" lon="3.33961">
        <ele>1086</ele>
        <time>2025-07-25T21:37:00Z</time>
      </trkpt>
      <trkpt lat="44.91726" lon="3.34051">
        <ele>1094</ele>
        <time>2025-07-25T21:38:26Z</time>
      </trkpt>
      <trkpt lat="44.91764" lon="3.34021">
        <ele>1098</ele>
        <time>2025-07-25T21:39:24Z</time>
      </trkpt>
      <trkpt lat="44.91806" lon="3.33972">
        <ele>1102</ele>
        <time>2025-07-25T21:40:36Z</time>
      </trkpt>
      <trkpt lat="44.91841" lon="3.33886">
        <ele>1104</ele>
        <time>2025-07-25T21:42:10Z</time>
      </trkpt>
      <trkpt lat="44.91967" lon="3.33819">
        <ele>1103</ele>
        <time>2025-07-25T21:45:10Z</time>
      </trkpt>
      <trkpt lat="44.91995" lon="3.33793">
        <ele>1098</ele>
        <time>2025-07-25T21:45:55Z</time>
      </trkpt>
      <trkpt lat="44.92106" lon="3.33781">
        <ele>1094</ele>
        <time>2025-07-25T21:48:23Z</time>
      </trkpt>
      <trkpt lat="44.92186" lon="3.33714">
        <ele>1083</ele>
        <time>2025-07-25T21:50:27Z</time>
      </trkpt>
      <trkpt lat="44.92214" lon="3.33705">
        <ele>1082</ele>
        <time>2025-07-25T21:51:06Z</time>
      </trkpt>
      <trkpt lat="44.92245" lon="3.3374">
        <ele>1084</ele>
        <time>2025-07-25T21:51:59Z</time>
      </trkpt>
      <trkpt lat="44.92282" lon="3.33853">
        <ele>1098</ele>
        <time>2025-07-25T21:53:56Z</time>
      </trkpt>
      <trkpt lat="44.92347" lon="3.33954">
        <ele>1108</ele>
        <time>2025-07-25T21:56:05Z</time>
      </trkpt>
      <trkpt lat="44.92402" lon="3.3409">
        <ele>1118</ele>
        <time>2025-07-25T21:58:33Z</time>
      </trkpt>
      <trkpt lat="44.92385" lon="3.34143">
        <ele>1119</ele>
        <time>2025-07-25T21:59:28Z</time>
      </trkpt>
      <trkpt lat="44.92375" lon="3.34225">
        <ele>1120</ele>
        <time>2025-07-25T22:00:47Z</time>
      </trkpt>
      <trkpt lat="44.92406" lon="3.3428">
        <ele>1119</ele>
        <time>2025-07-25T22:01:53Z</time>
      </trkpt>
      <trkpt lat="44.92463" lon="3.34368">
        <ele>1120</ele>
        <time>2025-07-25T22:03:46Z</time>
      </trkpt>
      <trkpt lat="44.92473" lon="3.34444">
        <ele>1123</ele>
        <time>2025-07-25T22:04:59Z</time>
      </trkpt>
      <trkpt lat="44.92545" lon="3.34512">
        <ele>1126</ele>
        <time>2025-07-25T22:06:54Z</time>
      </trkpt>
      <trkpt lat="44.92637" lon="3.34551">
        <ele>1130</ele>
        <time>2025-07-25T22:09:03Z</time>
      </trkpt>
      <trkpt lat="44.92733" lon="3.34574">
        <ele>1136</ele>
        <time>2025-07-25T22:11:13Z</time>
      </trkpt>
      <trkpt lat="44.92771" lon="3.34611">
        <ele>1138</ele>
        <time>2025-07-25T22:12:14Z</time>
      </trkpt>
      <trkpt lat="44.92789" lon="3.34667">
        <ele>1139</ele>
        <time>2025-07-25T22:13:12Z</time>
      </trkpt>
      <trkpt lat="44.92754" lon="3.34697">
        <ele>1142</ele>
        <time>2025-07-25T22:14:07Z</time>
      </trkpt>
      <trkpt lat="44.92627" lon="3.3474">
        <ele>1139</ele>
        <time>2025-07-25T22:17:01Z</time>
      </trkpt>
      <trkpt lat="44.92584" lon="3.348">
        <ele>1142</ele>
        <time>2025-07-25T22:18:22Z</time>
      </trkpt>
      <trkpt lat="44.92496" lon="3.34883">
        <ele>1143</ele>
        <time>2025-07-25T22:20:43Z</time>
      </trkpt>
      <trkpt lat="44.92622" lon="3.34879">
        <ele>1149</ele>
        <time>2025-07-25T22:23:31Z</time>
      </trkpt>
      <trkpt lat="44.92688" lon="3.34989">
        <ele>1155</ele>
        <time>2025-07-25T22:25:47Z</time>
      </trkpt>
      <trkpt lat="44.92757" lon="3.35079">
        <ele>1157</ele>
        <time>2025-07-25T22:27:53Z</time>
      </trkpt>
      <trkpt lat="44.92835" lon="3.35173">
        <ele>1160</ele>
        <time>2025-07-25T22:30:10Z</time>
      </trkpt>
      <trkpt lat="44.92894" lon="3.35244">
        <ele>1159</ele>
        <time>2025-07-25T22:31:53Z</time>
      </trkpt>
      <trkpt lat="44.92934" lon="3.35351">
        <ele>1163</ele>
        <time>2025-07-25T22:33:47Z</time>
      </trkpt>
      <trkpt lat="44.92941" lon="3.35456">
        <ele>1173</ele>
        <time>2025-07-25T22:35:27Z</time>
      </trkpt>
      <trkpt lat="44.92926" lon="3.35482">
        <ele>1176</ele>
        <time>2025-07-25T22:35:59Z</time>
      </trkpt>
      <trkpt lat="44.92946" lon="3.35574">
        <ele>1185</ele>
        <time>2025-07-25T22:37:30Z</time>
      </trkpt>
      <trkpt lat="44.92956" lon="3.35589">
        <ele>1185</ele>
        <time>2025-07-25T22:37:49Z</time>
      </trkpt>
      <trkpt lat="44.93025" lon="3.35628">
        <ele>1193</ele>
        <time>2025-07-25T22:39:28Z</time>
      </trkpt>
      <trkpt lat="44.93075" lon="3.35577">
        <ele>1194</ele>
        <time>2025-07-25T22:40:51Z</time>
      </trkpt>
      <trkpt lat="44.93172" lon="3.35516">
        <ele>1196</ele>
        <time>2025-07-25T22:43:12Z</time>
      </trkpt>
      <trkpt lat="44.93245" lon="3.35512">
        <ele>1196</ele>
        <time>2025-07-25T22:44:50Z</time>
      </trkpt>
      <trkpt lat="44.93323" lon="3.35559">
        <ele>1209</ele>
        <time>2025-07-25T22:46:43Z</time>
      </trkpt>
      <trkpt lat="44.93361" lon="3.35497">
        <ele>1210</ele>
        <time>2025-07-25T22:48:00Z</time>
      </trkpt>
      <trkpt lat="44.93427" lon="3.35441">
        <ele>1214</ele>
        <time>2025-07-25T22:49:43Z</time>
      </trkpt>
      <trkpt lat="44.93482" lon="3.35411">
        <ele>1217</ele>
        <time>2025-07-25T22:51:02Z</time>
      </trkpt>
      <trkpt lat="44.93584" lon="3.3533">
        <ele>1215</ele>
        <time>2025-07-25T22:53:38Z</time>
      </trkpt>
      <trkpt lat="44.93581" lon="3.3542">
        <ele>1226</ele>
        <time>2025-07-25T22:55:03Z</time>
      </trkpt>
      <trkpt lat="44.93578" lon="3.35559">
        <ele>1243</ele>
        <time>2025-07-25T22:57:14Z</time>
      </trkpt>
      <trkpt lat="44.93587" lon="3.35652">
        <ele>1252</ele>
        <time>2025-07-25T22:58:43Z</time>
      </trkpt>
      <trkpt lat="44.93597" lon="3.35714">
        <ele>1259</ele>
        <time>2025-07-25T22:59:43Z</time>
      </trkpt>
      <trkpt lat="44.93599" lon="3.35804">
        <ele>1266</ele>
        <time>2025-07-25T23:01:08Z</time>
      </trkpt>
      <trkpt lat="44.93593" lon="3.35911">
        <ele>1269</ele>
        <time>2025-07-25T23:02:50Z</time>
      </trkpt>
      <trkpt lat="44.93617" lon="3.35989">
        <ele>1271</ele>
        <time>2025-07-25T23:04:10Z</time>
      </trkpt>
      <trkpt lat="44.93563" lon="3.3601">
        <ele>1271</ele>
        <time>2025-07-25T23:05:25Z</time>
      </trkpt>
      <trkpt lat="44.93547" lon="3.36122">
        <ele>1271</ele>
        <time>2025-07-25T23:07:13Z</time>
      </trkpt>
      <trkpt lat="44.93477" lon="3.36261">
        <ele>1268</ele>
        <time>2025-07-25T23:09:54Z</time>
      </trkpt>
      <trkpt lat="44.93414" lon="3.36433">
        <ele>1260</ele>
        <time>2025-07-25T23:12:57Z</time>
      </trkpt>
      <trkpt lat="44.93338" lon="3.36583">
        <ele>1248</ele>
        <time>2025-07-25T23:15:51Z</time>
      </trkpt>
      <trkpt lat="44.93292" lon="3.36664">
        <ele>1241</ele>
        <time>2025-07-25T23:17:29Z</time>
      </trkpt>
      <trkpt lat="44.93256" lon="3.36731">
        <ele>1237</ele>
        <time>2025-07-25T23:18:49Z</time>
      </trkpt>
      <trkpt lat="44.93239" lon="3.36855">
        <ele>1237</ele>
        <time>2025-07-25T23:20:48Z</time>
      </trkpt>
      <trkpt lat="44.9325" lon="3.36877">
        <ele>1232.7</ele>
      </trkpt>
      <trkpt lat="44.93259" lon="3.36962">
        <ele>1241.5</ele>
      </trkpt>
      <trkpt lat="44.93257" lon="3.36973">
        <ele>1242.6</ele>
      </trkpt>
      <trkpt lat="44.9325" lon="3.36989">
        <ele>1243.2</ele>
      </trkpt>
      <trkpt lat="44.93244" lon="3.3701">
        <ele>1244.9</ele>
      </trkpt>
      <trkpt lat="44.93243" lon="3.37031">
        <ele>1247.1</ele>
      </trkpt>
      <trkpt lat="44.93222" lon="3.37086">
        <ele>1250.2</ele>
      </trkpt>
      <trkpt lat="44.93215" lon="3.37116">
        <ele>1251.9</ele>
      </trkpt>
      <trkpt lat="44.93205" lon="3.37188">
        <ele>1256.3</ele>
      </trkpt>
      <trkpt lat="44.93201" lon="3.37245">
        <ele>1256.5</ele>
      </trkpt>
      <trkpt lat="44.93194" lon="3.37271">
        <ele>1256</ele>
      </trkpt>
      <trkpt lat="44.93184" lon="3.37294">
        <ele>1256.2</ele>
      </trkpt>
      <trkpt lat="44.93182" lon="3.37313">
        <ele>1256.6</ele>
      </trkpt>
      <trkpt lat="44.93185" lon="3.37346">
        <ele>1256.8</ele>
      </trkpt>
      <trkpt lat="44.93181" lon="3.37395">
        <ele>1257.9</ele>
      </trkpt>
      <trkpt lat="44.93176" lon="3.3742">
        <ele>1258.6</ele>
      </trkpt>
      <trkpt lat="44.93175" lon="3.37456">
        <ele>1258.1</ele>
      </trkpt>
      <trkpt lat="44.93172" lon="3.3748">
        <ele>1258.4</ele>
      </trkpt>
      <trkpt lat="44.93174" lon="3.3751">
        <ele>1257.9</ele>
      </trkpt>
      <trkpt lat="44.93185" lon="3.37594">
        <ele>1257.4</ele>
      </trkpt>
      <trkpt lat="44.93191" lon="3.37666">
        <ele>1257.4</ele>
      </trkpt>
      <trkpt lat="44.93195" lon="3.37725">
        <ele>1258.1</ele>
      </trkpt>
      <trkpt lat="44.93203" lon="3.37776">
        <ele>1259.7</ele>
      </trkpt>
      <trkpt lat="44.93213" lon="3.37798">
        <ele>1259.1</ele>
      </trkpt>
      <trkpt lat="44.9322" lon="3.37823">
        <ele>1258.3</ele>
      </trkpt>
      <trkpt lat="44.93221" lon="3.3788">
        <ele>1257.5</ele>
      </trkpt>
      <trkpt lat="44.93217" lon="3.37911">
        <ele>1256.3</ele>
      </trkpt>
      <trkpt lat="44.93203" lon="3.37962">
        <ele>1255.5</ele>
      </trkpt>
      <trkpt lat="44.93177" lon="3.38022">
        <ele>1252.6</ele>
      </trkpt>
      <trkpt lat="44.93138" lon="3.3807">
        <ele>1247.5</ele>
      </trkpt>
      <trkpt lat="44.93123" lon="3.38079">
        <ele>1246.9</ele>
      </trkpt>
      <trkpt lat="44.93099" lon="3.38104">
        <ele>1244.2</ele>
      </trkpt>
      <trkpt lat="44.93089" lon="3.38117">
        <ele>1242.3</ele>
      </trkpt>
      <trkpt lat="44.93077" lon="3.3812">
        <ele>1242.1</ele>
      </trkpt>
      <trkpt lat="44.9307" lon="3.38126">
        <ele>1241.2</ele>
      </trkpt>
      <trkpt lat="44.93047" lon="3.38128">
        <ele>1241.8</ele>
      </trkpt>
      <trkpt lat="44.93043" lon="3.38136">
        <ele>1240.5</ele>
      </trkpt>
      <trkpt lat="44.93038" lon="3.38151">
        <ele>1239.8</ele>
      </trkpt>
      <trkpt lat="44.9303" lon="3.38192">
        <ele>1241.5</ele>
      </trkpt>
      <trkpt lat="44.93054" lon="3.38262">
        <ele>1240.6</ele>
      </trkpt>
      <trkpt lat="44.93061" lon="3.38301">
        <ele>1240</ele>
      </trkpt>
      <trkpt lat="44.93077" lon="3.38419">
        <ele>1243.8</ele>
      </trkpt>
      <trkpt lat="44.93083" lon="3.38443">
        <ele>1244.9</ele>
      </trkpt>
      <trkpt lat="44.93094" lon="3.38504">
        <ele>1248</ele>
      </trkpt>
      <trkpt lat="44.931" lon="3.38519">
        <ele>1248.3</ele>
      </trkpt>
      <trkpt lat="44.93112" lon="3.38538">
        <ele>1248.6</ele>
      </trkpt>
      <trkpt lat="44.93168" lon="3.38608">
        <ele>1249.7</ele>
      </trkpt>
      <trkpt lat="44.93293" lon="3.38728">
        <ele>1249.7</ele>
      </trkpt>
      <trkpt lat="44.93312" lon="3.38741">
        <ele>1249.3</ele>
      </trkpt>
      <trkpt lat="44.93349" lon="3.3876">
        <ele>1246.3</ele>
      </trkpt>
      <trkpt lat="44.9336" lon="3.38772">
        <ele>1245.1</ele>
      </trkpt>
      <trkpt lat="44.93364" lon="3.38784">
        <ele>1244.4</ele>
      </trkpt>
      <trkpt lat="44.93382" lon="3.38809">
        <ele>1241.6</ele>
      </trkpt>
      <trkpt lat="44.9341" lon="3.38859">
        <ele>1236.8</ele>
      </trkpt>
      <trkpt lat="44.93415" lon="3.38849">
        <ele>1236.6</ele>
      </trkpt>
      <trkpt lat="44.93651" lon="3.38329">
        <ele>1233</ele>
      </trkpt>
      <trkpt lat="44.9368" lon="3.38304">
        <ele>1229.4</ele>
      </trkpt>
      <trkpt lat="44.9371" lon="3.38279">
        <ele>1225</ele>
      </trkpt>
      <trkpt lat="44.93718" lon="3.38263">
        <ele>1223.7</ele>
      </trkpt>
      <trkpt lat="44.93739" lon="3.38189">
        <ele>1215.8</ele>
      </trkpt>
      <trkpt lat="44.93745" lon="3.38169">
        <ele>1213.4</ele>
      </trkpt>
      <trkpt lat="44.93817" lon="3.38166">
        <ele>1205.3</ele>
      </trkpt>
      <trkpt lat="44.93899" lon="3.38193">
        <ele>1196.8</ele>
      </trkpt>
      <trkpt lat="44.93965" lon="3.38212">
        <ele>1188.5</ele>
      </trkpt>
      <trkpt lat="44.94012" lon="3.38212">
        <ele>1181</ele>
      </trkpt>
      <trkpt lat="44.94046" lon="3.38185">
        <ele>1176.7</ele>
      </trkpt>
      <trkpt lat="44.94169" lon="3.38049">
        <ele>1163.7</ele>
      </trkpt>
      <trkpt lat="44.94201" lon="3.38034">
        <ele>1161.6</ele>
      </trkpt>
      <trkpt lat="44.94219" lon="3.38017">
        <ele>1160.6</ele>
      </trkpt>
      <trkpt lat="44.94239" lon="3.37941">
        <ele>1159.9</ele>
      </trkpt>
      <trkpt lat="44.94253" lon="3.37875">
        <ele>1155.3</ele>
      </trkpt>
      <trkpt lat="44.94267" lon="3.37855">
        <ele>1154.2</ele>
      </trkpt>
      <trkpt lat="44.94308" lon="3.37818">
        <ele>1152.5</ele>
      </trkpt>
      <trkpt lat="44.94319" lon="3.37815">
        <ele>1152.3</ele>
      </trkpt>
      <trkpt lat="44.94328" lon="3.37815">
        <ele>1152.1</ele>
      </trkpt>
      <trkpt lat="44.94336" lon="3.37818">
        <ele>1152.5</ele>
      </trkpt>
      <trkpt lat="44.94346" lon="3.37836">
        <ele>1154.2</ele>
      </trkpt>
      <trkpt lat="44.9435" lon="3.37847">
        <ele>1154.5</ele>
      </trkpt>
      <trkpt lat="44.94378" lon="3.37907">
        <ele>1156</ele>
        <time>2025-07-25T23:52:42Z</time>
      </trkpt>
      <trkpt lat="44.9445" lon="3.37969">
        <ele>1161</ele>
        <time>2025-07-25T23:54:35Z</time>
      </trkpt>
      <trkpt lat="44.94614" lon="3.3798">
        <ele>1168</ele>
        <time>2025-07-25T23:58:14Z</time>
      </trkpt>
      <trkpt lat="44.94673" lon="3.38072">
        <ele>1169</ele>
        <time>2025-07-26T00:00:11Z</time>
      </trkpt>
    </trkseg>
  </trk>
</gpx>